Terminal Aerodrome Forecast
Issued by NWS

Home | Current Version | Previous Version | Text Only | Print | Product List | Glossary On
Versions: 1 2 3 4 5 6 7 8 9 10 11 12 13 14 15 16
000
FTUS41 KBTV 172334
TAFSLK
TAF
KSLK 172334Z 1800/1824 00000KT P6SM SCT200
     FM181000 00000KT 5SM -SN BR OVC035
     FM181100 VRB03KT 2SM -SN BR OVC030
     FM181200 VRB03KT 3/4SM -SN BR OVC015
     FM181800 23006KT P6SM OVC010=

USA.gov is the U.S. government's official web portal to all federal, state and local government web resources and services.